sensor_id;sensor_type;location;lat;lon;timestamp;pressure;altitude;pressure_sealevel;temperature;humidity
79671;BME280;69137;50.878;8.050;2023-06-26T00:01:29;98242.84;;;17.74;71.85
79671;BME280;69137;50.878;8.050;2023-06-26T00:03:56;98244.41;;;17.80;71.53
79671;BME280;69137;50.878;8.050;2023-06-26T00:06:22;98230.06;;;17.78;71.40
79671;BME280;69137;50.878;8.050;2023-06-26T00:08:52;98231.25;;;17.85;71.51
79671;BME280;69137;50.878;8.050;2023-06-26T00:11:18;98232.88;;;17.86;71.12
79671;BME280;69137;50.878;8.050;2023-06-26T00:13:44;98232.38;;;17.84;70.97
79671;BME280;69137;50.878;8.050;2023-06-26T00:16:09;98228.91;;;17.79;71.42
79671;BME280;69137;50.878;8.050;2023-06-26T00:18:35;98227.28;;;17.78;71.92
79671;BME280;69137;50.878;8.050;2023-06-26T00:21:00;98227.72;;;17.71;71.78
79671;BME280;69137;50.878;8.050;2023-06-26T00:23:25;98223.91;;;17.58;72.42
79671;BME280;69137;50.878;8.050;2023-06-26T00:25:52;98226.88;;;17.62;72.42
79671;BME280;69137;50.878;8.050;2023-06-26T00:28:18;98227.31;;;17.55;72.33
79671;BME280;69137;50.878;8.050;2023-06-26T00:30:44;98224.66;;;17.41;72.61
79671;BME280;69137;50.878;8.050;2023-06-26T00:33:09;98222.66;;;17.33;73.05
79671;BME280;69137;50.878;8.050;2023-06-26T00:35:35;98218.75;;;17.34;72.72
79671;BME280;69137;50.878;8.050;2023-06-26T00:38:01;98223.47;;;17.34;72.94
79671;BME280;69137;50.878;8.050;2023-06-26T00:40:26;98229.50;;;17.36;72.54
79671;BME280;69137;50.878;8.050;2023-06-26T00:42:53;98218.38;;;17.27;72.83
79671;BME280;69137;50.878;8.050;2023-06-26T00:45:18;98222.34;;;17.12;73.34
79671;BME280;69137;50.878;8.050;2023-06-26T00:47:44;98223.78;;;17.10;73.78
79671;BME280;69137;50.878;8.050;2023-06-26T00:50:10;98225.41;;;17.11;73.46
79671;BME280;69137;50.878;8.050;2023-06-26T00:52:36;98228.84;;;17.16;73.52
79671;BME280;69137;50.878;8.050;2023-06-26T00:55:02;98221.88;;;16.96;74.57
79671;BME280;69137;50.878;8.050;2023-06-26T00:57:27;98216.78;;;16.90;74.34
79671;BME280;69137;50.878;8.050;2023-06-26T00:59:53;98213.41;;;16.93;74.36
79671;BME280;69137;50.878;8.050;2023-06-26T01:02:18;98213.00;;;16.86;74.43
79671;BME280;69137;50.878;8.050;2023-06-26T01:04:52;98213.75;;;16.77;74.64
79671;BME280;69137;50.878;8.050;2023-06-26T01:07:18;98211.41;;;16.71;74.74
79671;BME280;69137;50.878;8.050;2023-06-26T01:09:48;98212.53;;;16.70;74.79
79671;BME280;69137;50.878;8.050;2023-06-26T01:12:14;98210.91;;;16.69;74.44
79671;BME280;69137;50.878;8.050;2023-06-26T01:14:39;98206.34;;;16.50;75.48
79671;BME280;69137;50.878;8.050;2023-06-26T01:17:05;98202.06;;;16.44;75.88
79671;BME280;69137;50.878;8.050;2023-06-26T01:19:33;98203.88;;;16.49;75.51
79671;BME280;69137;50.878;8.050;2023-06-26T01:27:58;98210.31;;;16.44;76.04
79671;BME280;69137;50.878;8.050;2023-06-26T01:30:25;98202.28;;;16.34;76.43
79671;BME280;69137;50.878;8.050;2023-06-26T01:32:51;98196.88;;;16.29;76.46
79671;BME280;69137;50.878;8.050;2023-06-26T01:35:17;98191.13;;;16.39;76.65
79671;BME280;69137;50.878;8.050;2023-06-26T01:37:42;98198.19;;;16.45;76.26
79671;BME280;69137;50.878;8.050;2023-06-26T01:40:08;98191.25;;;16.48;75.87
79671;BME280;69137;50.878;8.050;2023-06-26T01:42:35;98182.41;;;16.59;75.19
79671;BME280;69137;50.878;8.050;2023-06-26T01:45:25;98186.94;;;16.55;75.29
79671;BME280;69137;50.878;8.050;2023-06-26T01:47:50;98178.25;;;16.48;75.47
79671;BME280;69137;50.878;8.050;2023-06-26T01:50:24;98179.31;;;16.38;75.66
79671;BME280;69137;50.878;8.050;2023-06-26T01:58:09;98166.47;;;16.20;76.71
79671;BME280;69137;50.878;8.050;2023-06-26T02:00:36;98174.84;;;16.15;76.57
79671;BME280;69137;50.878;8.050;2023-06-26T02:03:02;98168.22;;;16.02;77.15
79671;BME280;69137;50.878;8.050;2023-06-26T02:05:28;98170.97;;;16.02;77.32
79671;BME280;69137;50.878;8.050;2023-06-26T02:07:56;98172.31;;;15.91;77.52
79671;BME280;69137;50.878;8.050;2023-06-26T02:10:21;98173.13;;;15.91;77.73
79671;BME280;69137;50.878;8.050;2023-06-26T02:12:46;98174.66;;;15.84;77.98
79671;BME280;69137;50.878;8.050;2023-06-26T02:15:12;98173.94;;;15.78;78.15
79671;BME280;69137;50.878;8.050;2023-06-26T02:17:37;98180.06;;;15.75;78.41
79671;BME280;69137;50.878;8.050;2023-06-26T02:20:03;98174.56;;;15.75;78.17
79671;BME280;69137;50.878;8.050;2023-06-26T02:22:28;98168.41;;;15.64;79.06
79671;BME280;69137;50.878;8.050;2023-06-26T02:24:54;98164.22;;;15.67;78.79
79671;BME280;69137;50.878;8.050;2023-06-26T02:27:19;98171.28;;;15.73;78.47
79671;BME280;69137;50.878;8.050;2023-06-26T02:29:45;98171.72;;;15.80;77.95
79671;BME280;69137;50.878;8.050;2023-06-26T02:32:10;98170.47;;;15.86;77.71
79671;BME280;69137;50.878;8.050;2023-06-26T02:34:36;98171.28;;;15.87;77.30
79671;BME280;69137;50.878;8.050;2023-06-26T02:37:01;98173.75;;;15.88;77.34
79671;BME280;69137;50.878;8.050;2023-06-26T02:39:27;98172.41;;;15.86;77.40
79671;BME280;69137;50.878;8.050;2023-06-26T02:41:53;98171.50;;;15.90;77.75
79671;BME280;69137;50.878;8.050;2023-06-26T02:44:18;98155.56;;;15.87;77.26
79671;BME280;69137;50.878;8.050;2023-06-26T02:46:44;98163.25;;;15.90;77.25
79671;BME280;69137;50.878;8.050;2023-06-26T02:49:09;98158.84;;;15.89;77.10
79671;BME280;69137;50.878;8.050;2023-06-26T02:51:35;98158.84;;;15.89;77.03
79671;BME280;69137;50.878;8.050;2023-06-26T02:54:01;98154.13;;;15.90;77.12
79671;BME280;69137;50.878;8.050;2023-06-26T02:56:27;98148.94;;;15.88;76.77
79671;BME280;69137;50.878;8.050;2023-06-26T02:58:54;98155.19;;;15.80;77.47
79671;BME280;69137;50.878;8.050;2023-06-26T03:01:20;98154.25;;;15.71;77.88
79671;BME280;69137;50.878;8.050;2023-06-26T03:03:45;98154.50;;;15.56;78.54
79671;BME280;69137;50.878;8.050;2023-06-26T03:06:12;98156.25;;;15.51;78.49
79671;BME280;69137;50.878;8.050;2023-06-26T03:08:38;98154.94;;;15.49;78.95
79671;BME280;69137;50.878;8.050;2023-06-26T03:11:05;98149.00;;;15.42;78.89
79671;BME280;69137;50.878;8.050;2023-06-26T03:13:32;98154.88;;;15.21;79.74
79671;BME280;69137;50.878;8.050;2023-06-26T03:15:57;98143.44;;;15.14;80.25
79671;BME280;69137;50.878;8.050;2023-06-26T03:18:23;98148.31;;;15.17;79.82
79671;BME280;69137;50.878;8.050;2023-06-26T03:20:48;98147.75;;;15.20;79.59
79671;BME280;69137;50.878;8.050;2023-06-26T03:23:14;98143.78;;;15.26;79.12
79671;BME280;69137;50.878;8.050;2023-06-26T03:25:39;98148.97;;;15.28;79.09
79671;BME280;69137;50.878;8.050;2023-06-26T03:28:04;98144.06;;;15.25;78.93
79671;BME280;69137;50.878;8.050;2023-06-26T03:30:30;98142.06;;;15.31;79.31
79671;BME280;69137;50.878;8.050;2023-06-26T03:32:56;98148.56;;;15.35;79.21
79671;BME280;69137;50.878;8.050;2023-06-26T03:35:21;98146.94;;;15.34;78.97
79671;BME280;69137;50.878;8.050;2023-06-26T03:37:48;98140.94;;;15.32;78.75
79671;BME280;69137;50.878;8.050;2023-06-26T03:40:14;98134.59;;;15.31;78.99
79671;BME280;69137;50.878;8.050;2023-06-26T03:42:39;98142.06;;;15.31;78.91
79671;BME280;69137;50.878;8.050;2023-06-26T03:45:05;98138.78;;;15.28;79.13
79671;BME280;69137;50.878;8.050;2023-06-26T03:47:31;98139.88;;;15.27;79.10
79671;BME280;69137;50.878;8.050;2023-06-26T03:49:56;98145.66;;;15.12;80.11
79671;BME280;69137;50.878;8.050;2023-06-26T03:52:22;98146.75;;;14.97;80.68
79671;BME280;69137;50.878;8.050;2023-06-26T03:54:47;98143.59;;;15.04;80.61
79671;BME280;69137;50.878;8.050;2023-06-26T03:57:14;98142.91;;;15.12;79.93
79671;BME280;69137;50.878;8.050;2023-06-26T03:59:39;98147.31;;;15.13;79.99
79671;BME280;69137;50.878;8.050;2023-06-26T04:02:05;98141.81;;;15.13;80.26
79671;BME280;69137;50.878;8.050;2023-06-26T04:04:30;98146.91;;;15.20;79.45
79671;BME280;69137;50.878;8.050;2023-06-26T04:06:56;98155.31;;;15.10;80.21
79671;BME280;69137;50.878;8.050;2023-06-26T04:09:22;98151.94;;;14.99;80.89
79671;BME280;69137;50.878;8.050;2023-06-26T04:11:47;98147.59;;;15.12;80.32
79671;BME280;69137;50.878;8.050;2023-06-26T04:14:13;98154.66;;;15.18;79.56
79671;BME280;69137;50.878;8.050;2023-06-26T04:16:38;98158.59;;;15.12;80.34
79671;BME280;69137;50.878;8.050;2023-06-26T04:19:04;98159.75;;;15.24;79.84
79671;BME280;69137;50.878;8.050;2023-06-26T04:21:30;98157.97;;;15.34;79.46
79671;BME280;69137;50.878;8.050;2023-06-26T04:23:56;98163.28;;;15.44;79.07
79671;BME280;69137;50.878;8.050;2023-06-26T04:26:21;98168.34;;;15.37;80.03
79671;BME280;69137;50.878;8.050;2023-06-26T04:28:47;98174.56;;;15.28;79.97
79671;BME280;69137;50.878;8.050;2023-06-26T04:31:12;98168.44;;;15.32;79.83
79671;BME280;69137;50.878;8.050;2023-06-26T04:33:38;98180.78;;;15.34;79.58
79671;BME280;69137;50.878;8.050;2023-06-26T04:36:04;98176.00;;;15.40;79.89
79671;BME280;69137;50.878;8.050;2023-06-26T04:38:32;98168.25;;;15.42;79.86
79671;BME280;69137;50.878;8.050;2023-06-26T04:40:58;98178.84;;;15.48;80.05
79671;BME280;69137;50.878;8.050;2023-06-26T04:43:24;98182.84;;;15.56;80.50
79671;BME280;69137;50.878;8.050;2023-06-26T04:45:49;98180.31;;;15.60;79.99
79671;BME280;69137;50.878;8.050;2023-06-26T04:48:15;98184.94;;;15.64;79.99
79671;BME280;69137;50.878;8.050;2023-06-26T04:50:40;98177.16;;;15.66;79.70
79671;BME280;69137;50.878;8.050;2023-06-26T04:53:05;98182.81;;;15.75;79.59
79671;BME280;69137;50.878;8.050;2023-06-26T04:55:31;98190.38;;;15.83;79.70
79671;BME280;69137;50.878;8.050;2023-06-26T04:57:56;98191.19;;;15.84;79.38
79671;BME280;69137;50.878;8.050;2023-06-26T05:00:22;98190.78;;;15.90;79.33
79671;BME280;69137;50.878;8.050;2023-06-26T05:02:47;98190.06;;;15.99;79.25
79671;BME280;69137;50.878;8.050;2023-06-26T05:05:13;98188.44;;;16.11;78.28
79671;BME280;69137;50.878;8.050;2023-06-26T05:07:40;98188.13;;;16.27;78.25
79671;BME280;69137;50.878;8.050;2023-06-26T05:10:06;98191.13;;;16.39;77.24
79671;BME280;69137;50.878;8.050;2023-06-26T05:12:32;98193.09;;;16.38;77.08
79671;BME280;69137;50.878;8.050;2023-06-26T05:14:57;98185.63;;;16.53;77.10
79671;BME280;69137;50.878;8.050;2023-06-26T05:17:22;98196.84;;;16.56;77.30
79671;BME280;69137;50.878;8.050;2023-06-26T05:19:48;98193.88;;;16.53;78.27
79671;BME280;69137;50.878;8.050;2023-06-26T05:22:14;98195.00;;;16.52;78.64
79671;BME280;69137;50.878;8.050;2023-06-26T05:24:40;98196.09;;;16.65;77.84
79671;BME280;69137;50.878;8.050;2023-06-26T05:27:06;98186.22;;;16.86;77.36
79671;BME280;69137;50.878;8.050;2023-06-26T05:29:32;98192.28;;;17.11;76.68
79671;BME280;69137;50.878;8.050;2023-06-26T05:31:59;98189.81;;;17.32;75.61
79671;BME280;69137;50.878;8.050;2023-06-26T05:34:25;98189.47;;;17.56;74.56
79671;BME280;69137;50.878;8.050;2023-06-26T05:36:56;98192.81;;;17.75;74.73
79671;BME280;69137;50.878;8.050;2023-06-26T05:39:22;98196.97;;;17.86;73.10
79671;BME280;69137;50.878;8.050;2023-06-26T05:41:48;98189.25;;;18.06;73.08
79671;BME280;69137;50.878;8.050;2023-06-26T05:44:13;98197.91;;;18.30;72.41
79671;BME280;69137;50.878;8.050;2023-06-26T05:46:39;98189.47;;;18.36;74.16
79671;BME280;69137;50.878;8.050;2023-06-26T05:49:04;98196.66;;;18.54;72.71
79671;BME280;69137;50.878;8.050;2023-06-26T05:51:30;98198.81;;;18.74;71.49
79671;BME280;69137;50.878;8.050;2023-06-26T05:53:55;98195.91;;;18.88;72.80
79671;BME280;69137;50.878;8.050;2023-06-26T05:56:21;98199.47;;;19.06;71.42
79671;BME280;69137;50.878;8.050;2023-06-26T05:58:47;98200.63;;;19.14;71.78
79671;BME280;69137;50.878;8.050;2023-06-26T06:01:13;98205.00;;;19.32;70.75
79671;BME280;69137;50.878;8.050;2023-06-26T06:03:39;98203.34;;;19.49;67.46
79671;BME280;69137;50.878;8.050;2023-06-26T06:06:05;98208.69;;;19.71;69.04
79671;BME280;69137;50.878;8.050;2023-06-26T06:08:30;98199.69;;;19.83;66.00
79671;BME280;69137;50.878;8.050;2023-06-26T06:10:56;98195.84;;;20.05;66.37
79671;BME280;69137;50.878;8.050;2023-06-26T06:13:21;98201.31;;;20.22;63.69
79671;BME280;69137;50.878;8.050;2023-06-26T06:15:47;98208.06;;;20.42;63.58
79671;BME280;69137;50.878;8.050;2023-06-26T06:18:12;98211.69;;;20.64;63.01
79671;BME280;69137;50.878;8.050;2023-06-26T06:20:37;98216.97;;;20.78;63.35
79671;BME280;69137;50.878;8.050;2023-06-26T06:23:03;98219.44;;;21.00;62.16
79671;BME280;69137;50.878;8.050;2023-06-26T06:25:28;98213.06;;;21.00;60.93
79671;BME280;69137;50.878;8.050;2023-06-26T06:27:54;98218.41;;;21.26;60.90
79671;BME280;69137;50.878;8.050;2023-06-26T06:30:19;98230.41;;;21.38;60.80
79671;BME280;69137;50.878;8.050;2023-06-26T06:32:45;98221.44;;;21.54;59.90
79671;BME280;69137;50.878;8.050;2023-06-26T06:35:11;98216.84;;;21.70;59.95
79671;BME280;69137;50.878;8.050;2023-06-26T06:37:37;98219.88;;;21.77;59.53
79671;BME280;69137;50.878;8.050;2023-06-26T06:40:08;98219.28;;;21.84;59.08
79671;BME280;69137;50.878;8.050;2023-06-26T06:42:34;98216.78;;;22.03;58.19
79671;BME280;69137;50.878;8.050;2023-06-26T06:45:04;98221.75;;;22.10;58.09
79671;BME280;69137;50.878;8.050;2023-06-26T06:47:30;98216.94;;;22.19;57.76
79671;BME280;69137;50.878;8.050;2023-06-26T06:49:55;98213.47;;;22.35;57.60
79671;BME280;69137;50.878;8.050;2023-06-26T06:52:21;98211.38;;;22.44;57.01
79671;BME280;69137;50.878;8.050;2023-06-26T06:54:53;98216.50;;;22.42;56.97
79671;BME280;69137;50.878;8.050;2023-06-26T06:57:22;98238.16;;;22.61;56.98
79671;BME280;69137;50.878;8.050;2023-06-26T06:59:47;98233.28;;;22.58;56.21
79671;BME280;69137;50.878;8.050;2023-06-26T07:02:15;98229.91;;;22.64;56.29
79671;BME280;69137;50.878;8.050;2023-06-26T07:04:41;98233.59;;;22.81;56.61
79671;BME280;69137;50.878;8.050;2023-06-26T07:07:06;98235.66;;;22.96;56.07
79671;BME280;69137;50.878;8.050;2023-06-26T07:09:32;98243.09;;;23.04;56.54
79671;BME280;69137;50.878;8.050;2023-06-26T07:11:58;98243.56;;;23.06;54.69
79671;BME280;69137;50.878;8.050;2023-06-26T07:14:23;98240.06;;;23.09;55.68
79671;BME280;69137;50.878;8.050;2023-06-26T07:16:48;98239.97;;;23.34;54.38
79671;BME280;69137;50.878;8.050;2023-06-26T07:19:14;98230.41;;;23.47;54.15
79671;BME280;69137;50.878;8.050;2023-06-26T07:21:39;98233.81;;;23.00;55.51
79671;BME280;69137;50.878;8.050;2023-06-26T07:24:06;98232.22;;;22.75;56.34
79671;BME280;69137;50.878;8.050;2023-06-26T07:26:32;98234.81;;;22.55;56.12
79671;BME280;69137;50.878;8.050;2023-06-26T07:28:57;98236.19;;;22.37;56.44
79671;BME280;69137;50.878;8.050;2023-06-26T07:31:22;98240.25;;;22.27;56.93
79671;BME280;69137;50.878;8.050;2023-06-26T07:33:48;98245.72;;;22.23;57.67
79671;BME280;69137;50.878;8.050;2023-06-26T07:36:13;98239.31;;;22.48;57.06
79671;BME280;69137;50.878;8.050;2023-06-26T07:38:39;98245.56;;;22.81;57.58
79671;BME280;69137;50.878;8.050;2023-06-26T07:41:04;98248.22;;;23.02;56.38
79671;BME280;69137;50.878;8.050;2023-06-26T07:43:29;98249.16;;;22.82;56.07
79671;BME280;69137;50.878;8.050;2023-06-26T07:45:56;98244.63;;;22.77;55.84
79671;BME280;69137;50.878;8.050;2023-06-26T07:48:24;98244.19;;;22.75;56.35
79671;BME280;69137;50.878;8.050;2023-06-26T07:50:49;98248.34;;;22.57;57.27
79671;BME280;69137;50.878;8.050;2023-06-26T07:53:14;98242.44;;;22.83;56.52
79671;BME280;69137;50.878;8.050;2023-06-26T07:55:40;98248.53;;;23.01;55.90
79671;BME280;69137;50.878;8.050;2023-06-26T07:58:06;98249.91;;;23.19;54.68
79671;BME280;69137;50.878;8.050;2023-06-26T08:00:32;98243.22;;;23.36;55.26
79671;BME280;69137;50.878;8.050;2023-06-26T08:02:57;98243.47;;;23.31;54.03
79671;BME280;69137;50.878;8.050;2023-06-26T08:05:22;98251.34;;;23.41;54.56
79671;BME280;69137;50.878;8.050;2023-06-26T08:07:48;98250.66;;;23.60;54.07
79671;BME280;69137;50.878;8.050;2023-06-26T08:10:13;98236.53;;;23.81;53.57
79671;BME280;69137;50.878;8.050;2023-06-26T08:12:38;98257.97;;;23.65;53.46
79671;BME280;69137;50.878;8.050;2023-06-26T08:15:06;98257.13;;;23.48;54.01
79671;BME280;69137;50.878;8.050;2023-06-26T08:17:31;98262.06;;;23.27;54.97
79671;BME280;69137;50.878;8.050;2023-06-26T08:19:57;98256.31;;;22.95;55.54
79671;BME280;69137;50.878;8.050;2023-06-26T08:22:22;98260.72;;;23.08;55.13
79671;BME280;69137;50.878;8.050;2023-06-26T08:24:47;98272.94;;;23.32;55.58
79671;BME280;69137;50.878;8.050;2023-06-26T08:27:13;98268.31;;;23.36;54.84
79671;BME280;69137;50.878;8.050;2023-06-26T08:29:38;98255.72;;;23.42;55.35
79671;BME280;69137;50.878;8.050;2023-06-26T08:32:04;98261.31;;;23.42;55.25
79671;BME280;69137;50.878;8.050;2023-06-26T08:34:29;98269.56;;;22.98;55.10
79671;BME280;69137;50.878;8.050;2023-06-26T08:36:55;98266.91;;;22.77;54.61
79671;BME280;69137;50.878;8.050;2023-06-26T08:39:20;98278.75;;;22.62;57.05
79671;BME280;69137;50.878;8.050;2023-06-26T08:41:46;98287.69;;;22.55;56.88
79671;BME280;69137;50.878;8.050;2023-06-26T08:44:11;98295.09;;;22.76;56.32
79671;BME280;69137;50.878;8.050;2023-06-26T08:46:37;98291.38;;;22.72;57.50
79671;BME280;69137;50.878;8.050;2023-06-26T08:49:37;98293.59;;;23.03;56.53
79671;BME280;69137;50.878;8.050;2023-06-26T08:52:30;98293.84;;;23.38;56.42
79671;BME280;69137;50.878;8.050;2023-06-26T08:54:59;98277.66;;;23.16;56.57
79671;BME280;69137;50.878;8.050;2023-06-26T08:57:27;98287.06;;;23.51;55.30
79671;BME280;69137;50.878;8.050;2023-06-26T08:59:53;98291.47;;;23.52;54.73
79671;BME280;69137;50.878;8.050;2023-06-26T09:02:19;98294.91;;;23.74;54.92
79671;BME280;69137;50.878;8.050;2023-06-26T09:04:48;98293.03;;;23.78;53.75
79671;BME280;69137;50.878;8.050;2023-06-26T09:07:14;98308.63;;;23.67;54.86
79671;BME280;69137;50.878;8.050;2023-06-26T09:09:40;98313.81;;;23.68;55.45
79671;BME280;69137;50.878;8.050;2023-06-26T09:12:05;98313.09;;;23.55;56.00
79671;BME280;69137;50.878;8.050;2023-06-26T09:14:32;98314.97;;;23.39;55.96
79671;BME280;69137;50.878;8.050;2023-06-26T09:16:57;98309.97;;;23.45;56.24
79671;BME280;69137;50.878;8.050;2023-06-26T09:19:23;98321.16;;;23.73;55.40
79671;BME280;69137;50.878;8.050;2023-06-26T09:21:49;98320.31;;;23.85;53.15
79671;BME280;69137;50.878;8.050;2023-06-26T09:24:16;98324.81;;;23.89;52.29
79671;BME280;69137;50.878;8.050;2023-06-26T09:26:42;98318.19;;;24.10;51.93
79671;BME280;69137;50.878;8.050;2023-06-26T09:29:09;98318.50;;;24.36;53.14
79671;BME280;69137;50.878;8.050;2023-06-26T09:31:38;98318.22;;;24.26;51.71
79671;BME280;69137;50.878;8.050;2023-06-26T09:34:04;98324.03;;;24.05;53.04
79671;BME280;69137;50.878;8.050;2023-06-26T09:36:31;98319.75;;;24.23;51.36
79671;BME280;69137;50.878;8.050;2023-06-26T09:39:05;98317.31;;;24.37;52.22
79671;BME280;69137;50.878;8.050;2023-06-26T09:41:34;98323.09;;;24.29;51.47
79671;BME280;69137;50.878;8.050;2023-06-26T09:44:05;98320.56;;;24.24;52.71
79671;BME280;69137;50.878;8.050;2023-06-26T09:46:31;98322.94;;;24.53;52.66
79671;BME280;69137;50.878;8.050;2023-06-26T09:49:07;98324.28;;;24.75;50.08
79671;BME280;69137;50.878;8.050;2023-06-26T09:51:34;98321.41;;;24.56;50.36
79671;BME280;69137;50.878;8.050;2023-06-26T09:54:01;98330.25;;;24.58;49.58
79671;BME280;69137;50.878;8.050;2023-06-26T09:56:28;98331.75;;;24.71;49.29
79671;BME280;69137;50.878;8.050;2023-06-26T09:58:58;98337.44;;;24.59;50.38
79671;BME280;69137;50.878;8.050;2023-06-26T10:01:25;98329.97;;;24.63;49.06
79671;BME280;69137;50.878;8.050;2023-06-26T10:03:50;98333.09;;;24.77;47.77
79671;BME280;69137;50.878;8.050;2023-06-26T10:06:19;98338.63;;;24.74;48.73
79671;BME280;69137;50.878;8.050;2023-06-26T10:08:48;98332.28;;;24.93;49.13
79671;BME280;69137;50.878;8.050;2023-06-26T10:11:16;98334.09;;;25.01;49.32
79671;BME280;69137;50.878;8.050;2023-06-26T10:13:45;98335.69;;;25.02;47.73
79671;BME280;69137;50.878;8.050;2023-06-26T10:16:13;98332.72;;;24.95;47.98
79671;BME280;69137;50.878;8.050;2023-06-26T10:18:43;98333.28;;;24.84;48.87
79671;BME280;69137;50.878;8.050;2023-06-26T10:21:09;98334.56;;;24.55;49.31
79671;BME280;69137;50.878;8.050;2023-06-26T10:23:39;98338.09;;;24.52;48.89
79671;BME280;69137;50.878;8.050;2023-06-26T10:26:06;98334.00;;;24.81;48.09
79671;BME280;69137;50.878;8.050;2023-06-26T10:28:34;98335.63;;;24.82;48.27
79671;BME280;69137;50.878;8.050;2023-06-26T10:31:01;98333.94;;;25.13;48.76
79671;BME280;69137;50.878;8.050;2023-06-26T10:33:28;98331.59;;;25.15;48.39
79671;BME280;69137;50.878;8.050;2023-06-26T10:35:53;98335.69;;;25.53;48.83
79671;BME280;69137;50.878;8.050;2023-06-26T10:38:53;98333.25;;;25.52;47.07
79671;BME280;69137;50.878;8.050;2023-06-26T10:41:21;98333.38;;;25.39;47.01
79671;BME280;69137;50.878;8.050;2023-06-26T10:44:07;98333.94;;;25.13;45.97
79671;BME280;69137;50.878;8.050;2023-06-26T10:46:52;98342.53;;;25.20;46.09
79671;BME280;69137;50.878;8.050;2023-06-26T10:49:19;98339.56;;;24.97;46.01
79671;BME280;69137;50.878;8.050;2023-06-26T10:51:49;98340.09;;;25.03;45.83
79671;BME280;69137;50.878;8.050;2023-06-26T10:54:16;98349.91;;;25.13;45.38
79671;BME280;69137;50.878;8.050;2023-06-26T10:56:47;98348.31;;;25.12;46.49
79671;BME280;69137;50.878;8.050;2023-06-26T10:59:16;98345.28;;;24.69;45.76
79671;BME280;69137;50.878;8.050;2023-06-26T11:01:43;98350.44;;;24.67;46.00
79671;BME280;69137;50.878;8.050;2023-06-26T11:04:10;98347.88;;;24.46;47.31
79671;BME280;69137;50.878;8.050;2023-06-26T11:06:37;98353.38;;;23.98;49.00
79671;BME280;69137;50.878;8.050;2023-06-26T11:09:06;98362.50;;;23.83;49.70
79671;BME280;69137;50.878;8.050;2023-06-26T11:14:17;98368.06;;;24.55;47.15
79671;BME280;69137;50.878;8.050;2023-06-26T11:16:43;98362.50;;;24.71;46.49
79671;BME280;69137;50.878;8.050;2023-06-26T11:19:09;98365.47;;;24.78;46.94
79671;BME280;69137;50.878;8.050;2023-06-26T11:21:37;98368.59;;;24.93;44.66
79671;BME280;69137;50.878;8.050;2023-06-26T11:24:05;98366.50;;;25.05;44.38
79671;BME280;69137;50.878;8.050;2023-06-26T11:26:37;98359.94;;;25.49;44.38
79671;BME280;69137;50.878;8.050;2023-06-26T11:29:03;98368.72;;;25.67;44.42
79671;BME280;69137;50.878;8.050;2023-06-26T11:31:37;98373.00;;;25.25;41.33
79671;BME280;69137;50.878;8.050;2023-06-26T11:34:06;98376.59;;;25.26;42.00
79671;BME280;69137;50.878;8.050;2023-06-26T11:36:33;98370.38;;;25.33;41.75
79671;BME280;69137;50.878;8.050;2023-06-26T11:39:04;98368.31;;;25.30;42.99
79671;BME280;69137;50.878;8.050;2023-06-26T11:41:34;98380.50;;;24.90;40.51
79671;BME280;69137;50.878;8.050;2023-06-26T11:44:01;98382.31;;;24.66;41.51
79671;BME280;69137;50.878;8.050;2023-06-26T11:46:28;98377.25;;;24.88;42.39
79671;BME280;69137;50.878;8.050;2023-06-26T11:48:54;98374.47;;;25.03;43.72
79671;BME280;69137;50.878;8.050;2023-06-26T11:51:19;98369.22;;;25.18;43.80
79671;BME280;69137;50.878;8.050;2023-06-26T11:53:46;98382.09;;;25.38;43.35
79671;BME280;69137;50.878;8.050;2023-06-26T11:56:15;98374.22;;;25.44;41.12
79671;BME280;69137;50.878;8.050;2023-06-26T11:59:06;98378.94;;;25.24;38.91
79671;BME280;69137;50.878;8.050;2023-06-26T12:01:41;98388.72;;;24.98;39.09
79671;BME280;69137;50.878;8.050;2023-06-26T12:04:09;98386.00;;;25.18;37.58
79671;BME280;69137;50.878;8.050;2023-06-26T12:06:38;98383.63;;;25.36;37.65
79671;BME280;69137;50.878;8.050;2023-06-26T12:09:08;98390.69;;;25.30;40.16
79671;BME280;69137;50.878;8.050;2023-06-26T12:11:38;98391.66;;;25.21;40.33
79671;BME280;69137;50.878;8.050;2023-06-26T12:14:06;98399.59;;;24.88;39.68
79671;BME280;69137;50.878;8.050;2023-06-26T12:16:33;98394.72;;;25.00;40.64
79671;BME280;69137;50.878;8.050;2023-06-26T12:19:03;98396.72;;;25.16;34.93
79671;BME280;69137;50.878;8.050;2023-06-26T12:21:44;98401.72;;;25.42;37.25
79671;BME280;69137;50.878;8.050;2023-06-26T12:24:20;98399.22;;;25.37;35.20
79671;BME280;69137;50.878;8.050;2023-06-26T12:26:51;98401.25;;;25.20;37.66
79671;BME280;69137;50.878;8.050;2023-06-26T12:29:19;98413.75;;;25.26;38.03
79671;BME280;69137;50.878;8.050;2023-06-26T12:31:49;98413.84;;;25.30;38.48
79671;BME280;69137;50.878;8.050;2023-06-26T12:34:17;98415.22;;;24.89;40.16
79671;BME280;69137;50.878;8.050;2023-06-26T12:36:50;98405.72;;;24.77;40.00
79671;BME280;69137;50.878;8.050;2023-06-26T12:39:18;98408.63;;;24.97;41.27
79671;BME280;69137;50.878;8.050;2023-06-26T12:41:54;98417.63;;;24.74;40.20
79671;BME280;69137;50.878;8.050;2023-06-26T12:44:27;98419.25;;;24.31;38.81
79671;BME280;69137;50.878;8.050;2023-06-26T12:47:01;98414.47;;;24.32;38.61
79671;BME280;69137;50.878;8.050;2023-06-26T12:51:56;98420.53;;;24.62;41.04
79671;BME280;69137;50.878;8.050;2023-06-26T12:54:22;98406.38;;;24.87;37.29
79671;BME280;69137;50.878;8.050;2023-06-26T12:56:47;98403.66;;;25.06;37.63
79671;BME280;69137;50.878;8.050;2023-06-26T12:59:12;98407.16;;;25.03;38.90
79671;BME280;69137;50.878;8.050;2023-06-26T13:01:38;98405.75;;;25.25;37.57
79671;BME280;69137;50.878;8.050;2023-06-26T13:04:05;98400.81;;;25.54;37.06
79671;BME280;69137;50.878;8.050;2023-06-26T13:06:31;98406.75;;;25.52;36.02
79671;BME280;69137;50.878;8.050;2023-06-26T13:08:57;98405.25;;;25.74;36.06
79671;BME280;69137;50.878;8.050;2023-06-26T13:11:23;98396.13;;;25.42;35.08
79671;BME280;69137;50.878;8.050;2023-06-26T13:13:48;98405.28;;;25.23;36.53
79671;BME280;69137;50.878;8.050;2023-06-26T13:16:14;98413.75;;;25.26;37.07